Time;durP1;ratioP1;P1;durP2;ratioP2;P2;SDS_P1;SDS_P2;PMS_P1;PMS_P2;Temp;Humidity;BMP_temperature;BMP_pressure;BME280_temperature;BME280_humidity;BME280_pressure;Samples;Min_cycle;Max_cycle;Signal;HPM_P1;HPM_P2
2023/04/02 00:03:07;;;;;;;1.73;1.63;;;;;;;3.06;68.97;101543.78;6187970;28;20253;-71
2023/04/02 00:06:38;;;;;;;0.73;0.73;;;;;;;3.06;68.57;101551.63;6207879;28;20248;-71
2023/04/02 00:09:59;;;;;;;2.37;1.23;;;;;;;2.98;68.71;101551.28;6196272;28;20889;-71
2023/04/02 00:13:25;;;;;;;6.63;1.23;;;;;;;2.90;68.63;101556.19;6196505;28;20241;-70
2023/04/02 00:16:45;;;;;;;1.73;1.20;;;;;;;3.00;68.85;101557.22;6216946;28;20578;-71
2023/04/02 00:20:09;;;;;;;1.40;1.30;;;;;;;3.01;68.57;101561.50;6184496;28;20232;-71
2023/04/02 00:23:30;;;;;;;1.50;0.87;;;;;;;3.04;68.86;101568.28;6211807;28;20615;-71
2023/04/02 00:26:52;;;;;;;2.83;1.47;;;;;;;2.88;69.58;101576.31;6220125;28;20677;-70
2023/04/02 00:30:13;;;;;;;2.43;2.23;;;;;;;2.92;69.08;101583.00;6212113;28;20610;-71
2023/04/02 00:33:35;;;;;;;1.93;1.20;;;;;;;2.73;69.77;101580.72;6210178;28;20359;-70
2023/04/02 00:36:58;;;;;;;6.73;1.27;;;;;;;2.86;70.36;101588.59;6219531;28;20573;-70
2023/04/02 00:40:23;;;;;;;0.83;0.83;;;;;;;2.91;69.79;101591.75;6196008;28;20224;-71
2023/04/02 00:43:49;;;;;;;1.67;1.57;;;;;;;2.91;70.42;101599.56;6212336;28;20228;-72
2023/04/02 00:47:15;;;;;;;1.37;1.20;;;;;;;2.95;70.17;101611.44;6224005;28;20236;-71
2023/04/02 00:50:42;;;;;;;1.53;1.40;;;;;;;2.86;69.57;101609.47;6193440;28;20303;-71
2023/04/02 00:54:14;;;;;;;2.27;2.17;;;;;;;2.90;70.31;101610.94;6207094;28;20530;-70
2023/04/02 00:57:36;;;;;;;1.47;0.80;;;;;;;2.68;70.32;101623.69;6199617;28;20229;-71
2023/04/02 01:00:58;;;;;;;3.47;0.90;;;;;;;2.74;70.94;101624.13;6202832;28;20232;-71
2023/04/02 01:04:31;;;;;;;3.57;1.80;;;;;;;2.80;69.96;101630.72;6194484;28;20259;-71
2023/04/02 01:08:04;;;;;;;1.57;1.47;;;;;;;2.83;69.60;101642.72;6204761;28;20738;-71
2023/04/02 01:11:38;;;;;;;7.73;1.40;;;;;;;2.88;70.43;101648.47;6208821;28;20268;-72
2023/04/02 01:15:08;;;;;;;2.27;2.17;;;;;;;2.93;69.94;101649.84;6166255;28;20279;-71
2023/04/02 01:18:45;;;;;;;1.97;1.20;;;;;;;2.97;69.65;101653.91;6196692;28;20956;-72
2023/04/02 01:22:12;;;;;;;0.90;0.83;;;;;;;3.01;69.58;101655.38;6215837;28;20657;-71
2023/04/02 01:25:42;;;;;;;2.73;1.27;;;;;;;2.95;70.04;101662.75;6209963;28;20232;-71
2023/04/02 01:29:10;;;;;;;1.37;1.07;;;;;;;2.89;70.57;101671.84;6194915;28;20665;-71
2023/04/02 01:32:31;;;;;;;2.00;1.80;;;;;;;2.91;70.10;101683.00;6208085;28;20228;-72
2023/04/02 01:35:58;;;;;;;1.83;1.07;;;;;;;2.82;69.67;101677.53;6222796;28;20498;-71
2023/04/02 01:39:32;;;;;;;2.10;0.83;;;;;;;2.81;69.83;101689.75;6195883;28;20229;-71
2023/04/02 01:43:03;;;;;;;1.23;0.90;;;;;;;2.76;70.51;101691.78;6196751;28;20690;-71
2023/04/02 01:46:28;;;;;;;2.20;0.93;;;;;;;2.74;69.65;101684.06;6217773;28;20244;-71
2023/04/02 01:49:49;;;;;;;0.70;0.70;;;;;;;2.70;68.72;101702.63;6193054;28;20598;-70
2023/04/02 01:53:13;;;;;;;1.70;1.60;;;;;;;2.71;68.48;101706.91;6192606;28;20233;-71
2023/04/02 01:56:34;;;;;;;1.07;0.90;;;;;;;2.74;67.67;101704.91;6194435;28;20558;-71
2023/04/02 01:59:55;;;;;;;1.10;0.83;;;;;;;2.78;68.11;101712.56;6179427;28;20241;-70
2023/04/02 02:03:19;;;;;;;1.33;0.83;;;;;;;2.84;67.58;101710.41;6192122;28;20263;-71
2023/04/02 02:06:40;;;;;;;0.60;0.60;;;;;;;2.86;67.48;101712.91;6206648;28;20228;-71
2023/04/02 02:10:02;;;;;;;2.30;1.07;;;;;;;2.90;67.23;101728.28;6177964;28;20610;-71
2023/04/02 02:13:23;;;;;;;0.90;0.90;;;;;;;2.84;66.41;101739.06;6178158;28;20499;-71
2023/04/02 02:16:46;;;;;;;3.30;1.20;;;;;;;2.89;67.75;101731.81;6195664;28;20308;-71
2023/04/02 02:20:09;;;;;;;1.67;1.00;;;;;;;2.90;67.69;101741.31;6205222;28;20395;-70
2023/04/02 02:23:31;;;;;;;2.73;0.93;;;;;;;2.80;66.93;101740.19;6187583;28;20298;-71
2023/04/02 02:27:04;;;;;;;1.13;1.13;;;;;;;2.79;66.96;101748.94;6213742;28;20232;-71
2023/04/02 02:30:30;;;;;;;1.17;1.13;;;;;;;2.58;67.85;101747.69;6209304;28;20233;-71
2023/04/02 02:33:55;;;;;;;0.80;0.80;;;;;;;2.50;68.90;101758.56;6197128;28;20252;-71
2023/04/02 02:37:23;;;;;;;1.00;1.00;;;;;;;2.59;69.13;101755.41;6213271;28;20224;-71
2023/04/02 02:40:48;;;;;;;2.43;1.23;;;;;;;2.67;69.12;101767.97;6220197;28;20388;-71
2023/04/02 02:44:16;;;;;;;1.47;1.10;;;;;;;2.72;68.76;101769.34;6201529;28;20634;-70
2023/04/02 02:47:39;;;;;;;1.27;1.17;;;;;;;2.61;68.57;101781.38;6208856;28;20496;-71
2023/04/02 02:51:09;;;;;;;3.33;1.13;;;;;;;2.67;69.27;101779.25;6212852;28;20232;-72
2023/04/02 02:54:34;;;;;;;2.13;1.57;;;;;;;2.65;69.00;101788.09;6182284;28;20266;-71
2023/04/02 02:57:59;;;;;;;1.13;1.03;;;;;;;2.59;69.24;101796.28;6193675;28;20228;-72
2023/04/02 03:01:24;;;;;;;1.10;0.90;;;;;;;2.56;69.35;101802.50;6206982;28;20911;-71
2023/04/02 03:04:51;;;;;;;1.23;0.80;;;;;;;2.57;69.48;101806.78;6202442;28;20248;-70
2023/04/02 03:08:19;;;;;;;1.27;0.90;;;;;;;2.61;69.69;101818.69;6199198;28;20232;-70
2023/04/02 03:11:49;;;;;;;0.80;0.80;;;;;;;2.63;69.57;101818.63;6196749;28;20229;-70
2023/04/02 03:15:26;;;;;;;0.60;0.60;;;;;;;2.58;69.91;101824.09;6200816;28;20255;-71
2023/04/02 03:18:54;;;;;;;4.50;1.20;;;;;;;2.54;70.56;101833.03;6211671;28;20318;-70
2023/04/02 03:22:21;;;;;;;1.00;0.83;;;;;;;2.47;69.87;101839.56;6208392;28;20614;-71
2023/04/02 03:25:48;;;;;;;1.80;1.70;;;;;;;2.42;71.17;101846.81;6199967;28;20868;-71
2023/04/02 03:29:16;;;;;;;1.80;1.70;;;;;;;2.45;70.79;101846.63;6199033;28;20241;-70
2023/04/02 03:32:40;;;;;;;0.87;0.80;;;;;;;2.45;70.92;101858.81;6195397;28;20235;-71
2023/04/02 03:36:12;;;;;;;1.87;1.30;;;;;;;2.44;71.15;101857.13;6207759;28;20614;-71
2023/04/02 03:39:39;;;;;;;2.23;1.30;;;;;;;2.54;71.08;101872.13;6208848;28;20549;-70
2023/04/02 03:43:10;;;;;;;1.50;1.40;;;;;;;2.55;71.01;101881.63;6206540;28;20237;-70
2023/04/02 03:46:39;;;;;;;3.23;2.00;;;;;;;2.53;70.87;101878.25;6222467;28;20251;-71
2023/04/02 03:50:03;;;;;;;1.17;1.00;;;;;;;2.53;70.42;101888.69;6209536;28;20239;-71
2023/04/02 03:53:26;;;;;;;2.27;1.57;;;;;;;2.47;70.92;101893.44;6192395;28;20242;-71
2023/04/02 03:56:47;;;;;;;1.77;1.63;;;;;;;2.56;71.36;101905.91;6216769;28;20240;-71
2023/04/02 04:00:20;;;;;;;2.63;0.80;;;;;;;2.64;70.80;101906.31;6205129;28;20441;-70
2023/04/02 04:03:53;;;;;;;2.53;1.00;;;;;;;2.55;70.22;101910.28;6201749;28;20540;-70
2023/04/02 04:07:22;;;;;;;1.40;1.00;;;;;;;2.44;70.57;101914.47;6207667;28;20614;-70
2023/04/02 04:10:44;;;;;;;4.50;1.83;;;;;;;2.36;70.45;101933.97;6189534;28;20236;-70
2023/04/02 04:14:12;;;;;;;1.00;0.90;;;;;;;2.37;71.16;101934.81;6199252;28;20236;-71
2023/04/02 04:17:41;;;;;;;1.97;1.77;;;;;;;2.36;71.01;101939.19;6214589;28;20236;-70
2023/04/02 04:21:12;;;;;;;3.43;1.03;;;;;;;2.34;71.74;101945.41;6218263;28;20224;-70
2023/04/02 04:24:38;;;;;;;1.43;1.33;;;;;;;2.18;71.19;101942.00;6223524;28;20330;-71
2023/04/02 04:28:10;;;;;;;1.03;0.60;;;;;;;2.25;71.32;101949.41;6203667;28;20237;-71
2023/04/02 04:31:38;;;;;;;2.63;1.20;;;;;;;2.35;71.74;101955.75;6198481;28;21498;-70
2023/04/02 04:35:07;;;;;;;2.43;2.33;;;;;;;2.44;70.71;101957.00;6206551;28;20527;-71
2023/04/02 04:38:33;;;;;;;2.30;2.20;;;;;;;2.38;70.77;101966.00;6199176;28;20311;-71
2023/04/02 04:41:58;;;;;;;1.40;1.30;;;;;;;2.42;70.38;101973.63;6210600;28;20242;-71
2023/04/02 04:45:35;;;;;;;1.13;1.00;;;;;;;2.40;70.88;101968.50;6191153;28;20232;-71
2023/04/02 04:49:02;;;;;;;1.00;1.00;;;;;;;2.33;70.51;101972.38;6205515;28;20267;-71
2023/04/02 04:52:29;;;;;;;0.80;0.80;;;;;;;2.40;70.74;101981.53;6203286;28;20984;-71
2023/04/02 04:55:55;;;;;;;1.60;1.50;;;;;;;2.43;70.38;101996.16;6219430;28;20232;-71
2023/04/02 04:59:22;;;;;;;0.77;0.77;;;;;;;2.40;69.91;102005.81;6209966;28;20233;-71
2023/04/02 05:02:50;;;;;;;3.43;1.00;;;;;;;2.49;70.97;102006.22;6203192;28;20225;-71
2023/04/02 05:06:20;;;;;;;2.43;1.03;;;;;;;2.65;70.25;102012.25;6216345;28;20586;-71
2023/04/02 05:09:45;;;;;;;0.70;0.70;;;;;;;2.57;69.74;102017.88;6200881;28;20231;-70
2023/04/02 05:13:16;;;;;;;3.33;1.03;;;;;;;2.80;69.98;102028.75;6188997;28;20232;-72
2023/04/02 05:16:43;;;;;;;2.40;0.80;;;;;;;2.97;69.25;102037.25;6190278;28;20527;-71
2023/04/02 05:20:15;;;;;;;3.33;0.93;;;;;;;3.05;68.96;102042.88;6209485;28;20231;-70
2023/04/02 05:23:47;;;;;;;0.70;0.70;;;;;;;3.21;67.73;102045.41;6201383;28;20236;-71
2023/04/02 05:27:19;;;;;;;0.83;0.83;;;;;;;3.32;67.37;102056.03;6222967;28;20224;-70
2023/04/02 05:30:51;;;;;;;0.80;0.80;;;;;;;3.32;67.05;102052.59;6200185;28;20232;-70
2023/04/02 05:34:20;;;;;;;0.60;0.60;;;;;;;3.28;67.17;102056.31;6205255;28;20236;-71
2023/04/02 05:37:42;;;;;;;0.60;0.60;;;;;;;3.30;67.36;102070.13;6218497;28;20232;-71
2023/04/02 05:41:07;;;;;;;0.97;0.70;;;;;;;3.21;67.11;102073.25;6217907;28;20228;-71
2023/04/02 05:44:32;;;;;;;0.80;0.80;;;;;;;3.39;68.01;102074.75;6218269;28;20225;-73
2023/04/02 05:47:58;;;;;;;0.60;0.60;;;;;;;3.40;67.12;102077.28;6206248;28;20232;-70
2023/04/02 05:51:28;;;;;;;1.17;1.07;;;;;;;3.43;67.51;102089.31;6217791;28;20368;-70
2023/04/02 05:54:55;;;;;;;0.80;0.80;;;;;;;3.43;66.80;102089.31;6214707;28;20228;-71
2023/04/02 05:58:23;;;;;;;1.23;0.80;;;;;;;3.50;66.74;102088.03;6201930;28;20256;-70
2023/04/02 06:01:49;;;;;;;2.70;1.60;;;;;;;3.59;66.99;102087.47;6214851;28;21587;-72
2023/04/02 06:05:25;;;;;;;1.80;0.93;;;;;;;3.77;66.93;102096.81;6220050;28;20606;-71
2023/04/02 06:08:52;;;;;;;0.50;0.50;;;;;;;3.85;66.50;102098.91;6203729;28;20228;-71
2023/04/02 06:12:22;;;;;;;0.77;0.73;;;;;;;3.94;65.90;102100.13;6205581;28;20485;-71
2023/04/02 06:15:44;;;;;;;0.97;0.97;;;;;;;4.02;65.94;102109.19;6190249;28;20550;-70
2023/04/02 06:19:18;;;;;;;1.47;0.90;;;;;;;4.26;64.97;102119.06;6204647;28;20228;-71
2023/04/02 06:22:45;;;;;;;1.60;0.80;;;;;;;4.35;64.79;102121.06;6218422;28;20232;-71
2023/04/02 06:26:18;;;;;;;0.87;0.70;;;;;;;4.37;64.28;102125.25;6201981;28;20595;-71
2023/04/02 06:29:42;;;;;;;7.73;1.33;;;;;;;4.34;64.45;102129.84;6226211;28;20572;-70
2023/04/02 06:33:11;;;;;;;1.30;1.20;;;;;;;4.40;64.39;102132.91;6201098;28;20232;-71
2023/04/02 06:36:33;;;;;;;1.70;1.03;;;;;;;4.48;63.73;102135.06;6202057;28;20251;-72
2023/04/02 06:40:02;;;;;;;0.60;0.60;;;;;;;4.61;63.89;102145.56;6207852;28;20228;-71
2023/04/02 06:43:32;;;;;;;4.43;0.90;;;;;;;4.62;63.79;102149.84;6204954;28;20225;-71
2023/04/02 06:47:16;;;;;;;0.80;0.80;;;;;;;4.70;63.41;102161.50;6211197;28;20784;-71
2023/04/02 06:50:44;;;;;;;1.53;0.77;;;;;;;4.76;63.17;102157.63;6205202;28;20532;-71
2023/04/02 06:54:12;;;;;;;1.37;1.00;;;;;;;4.93;62.82;102170.50;6223697;28;20239;-70
2023/04/02 06:57:35;;;;;;;1.50;0.63;;;;;;;5.14;61.87;102176.09;6204936;28;20231;-71
2023/04/02 07:00:57;;;;;;;0.90;0.77;;;;;;;5.36;61.72;102180.75;6218106;28;22069;-71
2023/04/02 07:04:29;;;;;;;2.30;0.80;;;;;;;5.26;60.37;102200.63;6205263;28;20216;-71
2023/04/02 07:07:51;;;;;;;0.60;0.60;;;;;;;5.34;60.32;102190.50;6214508;28;20232;-70
2023/04/02 07:11:14;;;;;;;2.70;0.90;;;;;;;5.61;59.50;102191.28;6202590;28;20228;-70
2023/04/02 07:14:36;;;;;;;2.10;1.70;;;;;;;5.47;59.52;102207.91;6218605;28;20232;-71
2023/04/02 07:17:58;;;;;;;1.87;0.80;;;;;;;5.36;59.42;102199.09;6200350;28;20538;-73
2023/04/02 07:21:19;;;;;;;4.77;1.00;;;;;;;5.51;58.75;102205.91;6210666;28;20225;-70
2023/04/02 07:24:40;;;;;;;1.60;1.50;;;;;;;5.71;59.35;102209.81;6198299;28;20228;-71
2023/04/02 07:28:01;;;;;;;0.97;0.73;;;;;;;5.71;59.07;102218.50;6220394;28;20232;-71
2023/04/02 07:31:25;;;;;;;1.13;0.83;;;;;;;6.02;58.17;102221.72;6217294;28;20225;-71
2023/04/02 07:34:47;;;;;;;2.30;0.50;;;;;;;5.96;56.82;102227.38;6217597;28;20221;-71
2023/04/02 07:38:09;;;;;;;1.23;0.63;;;;;;;5.98;57.84;102228.94;6216708;28;20232;-71
2023/04/02 07:41:30;;;;;;;1.60;0.80;;;;;;;6.08;56.56;102235.25;6207782;28;20229;-68
2023/04/02 07:44:51;;;;;;;1.70;1.67;;;;;;;6.15;55.86;102246.97;6222170;28;20232;-70
2023/04/02 07:48:14;;;;;;;2.37;1.97;;;;;;;6.45;55.47;102251.88;6218574;28;20225;-70
2023/04/02 07:51:36;;;;;;;0.63;0.63;;;;;;;6.49;54.72;102261.22;6221366;28;20243;-69
2023/04/02 07:54:57;;;;;;;0.53;0.53;;;;;;;6.40;54.86;102256.59;6223245;28;20311;-70
2023/04/02 07:58:17;;;;;;;1.17;1.07;;;;;;;6.41;55.30;102263.53;6221926;28;20232;-69
2023/04/02 08:01:39;;;;;;;1.23;0.90;;;;;;;6.36;55.19;102275.28;6217015;28;20275;-69
2023/04/02 08:05:01;;;;;;;0.60;0.60;;;;;;;6.33;55.24;102278.94;6229314;28;20225;-69
2023/04/02 08:08:23;;;;;;;1.53;0.90;;;;;;;6.64;54.79;102285.53;6220055;28;20225;-69
2023/04/02 08:11:45;;;;;;;1.60;1.07;;;;;;;6.74;53.98;102281.31;6217852;28;20225;-69
2023/04/02 08:15:07;;;;;;;1.70;0.80;;;;;;;6.66;54.50;102286.25;6220933;28;20228;-69
2023/04/02 08:18:29;;;;;;;1.57;0.67;;;;;;;6.64;54.26;102293.41;6220361;28;20236;-71
2023/04/02 08:21:52;;;;;;;0.80;0.80;;;;;;;6.39;53.41;102298.66;6219477;28;20244;-69
2023/04/02 08:25:13;;;;;;;1.13;1.00;;;;;;;6.63;53.66;102307.47;6221373;28;20500;-74
2023/04/02 08:28:34;;;;;;;0.43;0.43;;;;;;;6.47;54.06;102306.84;6223181;28;20237;-76
2023/04/02 08:31:55;;;;;;;1.37;1.00;;;;;;;6.58;54.14;102321.84;6218136;28;21868;-75
2023/04/02 08:35:17;;;;;;;0.83;0.83;;;;;;;6.78;53.13;102301.13;6216612;28;20224;-75
2023/04/02 08:38:39;;;;;;;0.80;0.80;;;;;;;7.05;53.31;102311.47;6212716;28;20221;-74
2023/04/02 08:42:04;;;;;;;1.67;1.57;;;;;;;7.26;54.10;102311.72;6213772;28;20243;-76
2023/04/02 08:45:38;;;;;;;1.70;1.17;;;;;;;7.33;53.23;102327.88;6216820;28;20240;-76
2023/04/02 08:49:04;;;;;;;0.67;0.67;;;;;;;7.40;49.45;102337.84;6220424;28;21795;-76
2023/04/02 08:52:28;;;;;;;0.60;0.60;;;;;;;7.45;49.63;102337.50;6218099;28;20228;-76
2023/04/02 08:55:58;;;;;;;2.17;0.70;;;;;;;7.28;49.34;102349.22;6212256;28;20236;-75
2023/04/02 08:59:28;;;;;;;0.60;0.60;;;;;;;7.51;54.53;102348.38;6208364;28;20622;-73
2023/04/02 09:02:55;;;;;;;1.13;1.03;;;;;;;7.56;52.42;102350.69;6209243;28;20232;-73
2023/04/02 09:06:19;;;;;;;7.30;6.23;;;;;;;8.05;57.29;102350.53;6212403;28;20331;-70
2023/04/02 09:09:40;;;;;;;88.00;33.77;;;;;;;8.37;50.41;102363.88;6214729;28;20255;-74
2023/04/02 09:13:07;;;;;;;7.67;4.23;;;;;;;8.71;50.49;102369.22;6193180;28;20483;-76
2023/04/02 09:16:42;;;;;;;130.33;120.60;;;;;;;8.76;51.88;102367.06;6197217;28;20746;-68
2023/04/02 09:20:16;;;;;;;150.47;137.30;;;;;;;9.29;58.02;102378.63;6211843;28;21286;-69
2023/04/02 09:23:36;;;;;;;37.80;33.80;;;;;;;10.04;46.57;102378.63;6211315;28;20582;-75
2023/04/02 09:26:57;;;;;;;3.70;2.70;;;;;;;8.85;45.85;102371.59;6215168;28;20240;-73
2023/04/02 09:30:33;;;;;;;1.27;0.80;;;;;;;8.75;45.65;102381.19;6222542;28;20244;-74
2023/04/02 09:33:54;;;;;;;0.80;0.80;;;;;;;8.44;45.25;102385.31;6209037;28;20259;-74
2023/04/02 09:37:18;;;;;;;1.70;0.53;;;;;;;8.45;46.78;102390.47;6213962;28;20610;-75
2023/04/02 09:40:46;;;;;;;2.73;1.03;;;;;;;8.33;45.01;102396.69;6211947;28;20267;-73
2023/04/02 09:44:30;;;;;;;0.83;0.50;;;;;;;8.45;45.30;102395.72;6214394;28;20525;-74
2023/04/02 09:47:53;;;;;;;1.17;0.97;;;;;;;8.26;43.66;102394.56;6223332;28;20232;-73
2023/04/02 09:51:17;;;;;;;4.33;1.17;;;;;;;8.38;45.50;102397.13;6217382;28;20618;-73
2023/04/02 09:54:41;;;;;;;0.63;0.60;;;;;;;8.60;45.82;102395.50;6219768;28;20232;-73
2023/04/02 09:58:12;;;;;;;1.07;0.67;;;;;;;8.68;44.19;102408.94;6221013;28;20232;-73
2023/04/02 10:01:35;;;;;;;1.27;0.80;;;;;;;8.95;45.03;102419.97;6218219;28;20495;-74
2023/04/02 10:05:02;;;;;;;0.70;0.67;;;;;;;9.04;45.66;102413.97;6213980;28;20225;-73
2023/04/02 10:08:27;;;;;;;1.60;1.50;;;;;;;9.17;43.97;102414.69;6217344;28;20622;-73
2023/04/02 10:11:50;;;;;;;1.23;1.23;;;;;;;9.15;43.06;102419.25;6204632;28;20268;-73
2023/04/02 10:15:15;;;;;;;1.00;0.80;;;;;;;9.11;43.09;102416.97;6209158;28;20240;-73
2023/04/02 10:18:41;;;;;;;0.60;0.60;;;;;;;9.59;43.33;102436.81;6220522;28;20244;-74
2023/04/02 10:22:11;;;;;;;0.33;0.33;;;;;;;9.45;40.71;102444.97;6210534;28;20233;-69
2023/04/02 10:25:42;;;;;;;0.60;0.60;;;;;;;9.51;40.63;102441.84;6201746;28;20236;-70
2023/04/02 10:29:19;;;;;;;0.50;0.50;;;;;;;9.22;41.18;102436.25;6228756;28;20296;-70
2023/04/02 10:32:46;;;;;;;0.93;0.70;;;;;;;9.94;41.82;102460.31;6229358;28;20612;-70
2023/04/02 10:36:11;;;;;;;0.80;0.80;;;;;;;9.65;40.77;102459.22;6221433;28;20233;-69
2023/04/02 10:39:38;;;;;;;0.40;0.40;;;;;;;9.99;41.83;102467.84;6223070;28;20241;-70
2023/04/02 10:43:23;;;;;;;1.10;0.53;;;;;;;10.11;40.70;102473.94;6227971;28;20374;-70
2023/04/02 10:46:54;;;;;;;1.40;1.30;;;;;;;10.56;40.94;102474.63;6221529;28;20248;-69
2023/04/02 10:50:30;;;;;;;0.57;0.57;;;;;;;10.34;40.91;102488.75;6227378;28;20251;-71
2023/04/02 10:53:57;;;;;;;0.87;0.87;;;;;;;10.05;41.37;102498.19;6226710;28;21760;-69
2023/04/02 10:57:28;;;;;;;2.63;0.80;;;;;;;11.03;40.98;102491.75;6218020;28;20239;-70
2023/04/02 11:00:52;;;;;;;2.87;1.37;;;;;;;11.67;48.06;102496.72;6227881;28;20228;-72
2023/04/02 11:04:23;;;;;;;0.97;0.90;;;;;;;12.24;40.39;102503.09;6223547;28;20236;-71
2023/04/02 11:07:56;;;;;;;3.70;0.67;;;;;;;12.72;41.20;102503.09;6221501;28;20693;-73
2023/04/02 11:11:20;;;;;;;1.27;0.90;;;;;;;14.37;37.34;102499.50;6227459;28;20224;-72
2023/04/02 11:14:42;;;;;;;1.43;0.60;;;;;;;18.45;28.95;102492.38;6206503;28;20323;-72
2023/04/02 11:18:03;;;;;;;2.07;1.10;;;;;;;22.81;21.50;102499.47;6206287;28;20634;-72
2023/04/02 11:21:42;;;;;;;1.37;1.27;;;;;;;24.70;18.09;102480.84;6206383;28;20516;-72
2023/04/02 11:25:04;;;;;;;1.43;1.03;;;;;;;20.24;20.42;102489.41;6201962;28;20244;-69
2023/04/02 11:28:28;;;;;;;2.30;1.17;;;;;;;14.68;28.17;102512.44;6215810;28;20244;-70
2023/04/02 11:32:10;;;;;;;0.73;0.73;;;;;;;19.17;23.36;102513.28;6205548;28;20232;-70
2023/04/02 11:35:39;;;;;;;0.55;0.55;;;;;;;22.60;18.04;102515.78;6225817;28;20526;-70
2023/04/02 11:39:04;;;;;;;1.52;0.40;;;;;;;23.33;16.75;102513.00;6223920;28;20228;-70
2023/04/02 11:42:28;;;;;;;1.35;0.63;;;;;;;23.97;16.02;102521.03;6223880;28;20233;-70
2023/04/02 11:45:56;;;;;;;2.15;1.00;;;;;;;24.39;15.60;102522.25;6217035;28;20232;-70
2023/04/02 11:49:35;;;;;;;1.83;0.85;;;;;;;26.92;13.78;102525.88;6205369;28;20231;-70
2023/04/02 11:53:00;;;;;;;0.50;0.43;;;;;;;25.14;14.03;102536.53;6227630;28;20233;-70
2023/04/02 11:56:29;;;;;;;0.93;0.85;;;;;;;24.80;15.13;102539.78;6216311;28;20245;-70
2023/04/02 12:00:07;;;;;;;0.65;0.40;;;;;;;26.10;12.89;102529.53;6218427;28;20248;-70
2023/04/02 12:04:07;;;;;;;2.20;0.77;;;;;;;20.97;17.39;102541.88;6198527;28;21653;-70
2023/04/02 12:07:50;;;;;;;1.15;0.80;;;;;;;23.59;15.03;102545.31;6219314;28;20673;-69
2023/04/02 12:11:11;;;;;;;0.32;0.32;;;;;;;23.75;14.66;102557.47;6221459;28;20248;-70
2023/04/02 12:14:44;;;;;;;0.30;0.30;;;;;;;25.58;14.12;102558.09;6212858;28;20233;-71
2023/04/02 12:18:14;;;;;;;1.27;0.85;;;;;;;25.43;13.90;102562.00;6211508;28;20514;-71
2023/04/02 12:21:35;;;;;;;0.68;0.60;;;;;;;27.21;12.56;102563.97;6224454;28;20622;-70
2023/04/02 12:25:00;;;;;;;0.40;0.40;;;;;;;24.19;14.26;102570.91;6231743;28;20233;-70
2023/04/02 12:28:22;;;;;;;0.80;0.80;;;;;;;25.24;14.05;102568.47;6208066;28;20826;-69
2023/04/02 12:31:44;;;;;;;0.57;0.45;;;;;;;24.95;15.69;102577.28;6207817;28;20673;-71
2023/04/02 12:35:07;;;;;;;1.45;1.02;;;;;;;27.47;12.64;102576.19;6203483;28;20243;-72
2023/04/02 12:38:29;;;;;;;4.38;1.13;;;;;;;27.16;12.51;102574.69;6217859;28;20225;-71
2023/04/02 12:41:52;;;;;;;0.55;0.55;;;;;;;27.85;14.23;102573.75;6218817;28;20237;-71
2023/04/02 12:45:23;;;;;;;1.08;0.70;;;;;;;26.27;13.33;102570.31;6225772;28;20498;-71
2023/04/02 12:48:44;;;;;;;0.70;0.70;;;;;;;27.78;12.88;102574.97;6214838;28;20228;-72
2023/04/02 12:52:08;;;;;;;1.30;0.60;;;;;;;27.38;13.20;102570.31;6225406;28;20260;-72
2023/04/02 12:55:30;;;;;;;0.60;0.55;;;;;;;26.68;13.55;102574.88;6215222;28;20240;-73
2023/04/02 12:58:55;;;;;;;1.13;0.82;;;;;;;26.98;14.07;102567.53;6219001;28;20233;-71
2023/04/02 13:02:19;;;;;;;2.00;0.70;;;;;;;28.25;13.91;102554.69;6198852;28;20228;-72
2023/04/02 13:05:44;;;;;;;3.60;0.95;;;;;;;26.93;13.70;102570.06;6223244;28;20491;-72
2023/04/02 13:09:07;;;;;;;1.52;1.42;;;;;;;25.43;16.25;102575.53;6225738;28;20228;-72
2023/04/02 13:12:33;;;;;;;3.25;1.63;;;;;;;22.18;19.21;102590.47;6216488;28;20240;-72
2023/04/02 13:16:04;;;;;;;2.83;2.40;;;;;;;20.46;21.12;102611.81;6220281;28;20228;-72
2023/04/02 13:19:29;;;;;;;6.07;4.50;;;;;;;25.11;16.29;102606.44;6215766;28;20224;-71
2023/04/02 13:22:50;;;;;;;2.05;1.17;;;;;;;24.75;15.27;102605.25;6215019;28;20237;-71
2023/04/02 13:26:16;;;;;;;3.15;1.00;;;;;;;25.42;15.72;102594.69;6207458;28;20225;-73
2023/04/02 13:29:37;;;;;;;2.35;1.30;;;;;;;26.14;15.47;102610.06;6218330;28;20256;-71
2023/04/02 13:32:59;;;;;;;1.05;1.05;;;;;;;23.13;17.55;102602.81;6195796;28;20225;-73
2023/04/02 13:36:20;;;;;;;1.45;0.82;;;;;;;18.83;24.19;102612.78;6218635;28;20228;-72
2023/04/02 13:39:41;;;;;;;1.00;0.70;;;;;;;24.21;17.90;102598.53;6216156;28;20244;-73
2023/04/02 13:43:02;;;;;;;1.70;1.60;;;;;;;24.50;17.00;102607.09;6221768;28;20755;-73
2023/04/02 13:46:25;;;;;;;1.90;1.30;;;;;;;20.86;20.04;102615.69;6210693;28;20240;-72
2023/04/02 13:49:47;;;;;;;0.70;0.65;;;;;;;21.96;19.73;102606.91;6216863;28;20221;-71
2023/04/02 13:53:14;;;;;;;1.20;0.70;;;;;;;22.17;18.06;102615.72;6215613;28;20318;-75
2023/04/02 13:56:36;;;;;;;0.98;0.70;;;;;;;23.91;16.99;102608.25;6199638;28;20262;-73
2023/04/02 13:59:56;;;;;;;1.38;1.27;;;;;;;23.27;18.25;102621.69;6205012;28;20309;-74
2023/04/02 14:03:20;;;;;;;1.98;0.80;;;;;;;22.74;18.43;102637.78;6189974;28;20239;-74
2023/04/02 14:07:10;;;;;;;1.10;1.00;;;;;;;23.08;17.33;102632.22;6207513;28;20228;-73
2023/04/02 14:10:47;;;;;;;1.30;1.17;;;;;;;23.01;17.60;102630.59;6214455;28;20315;-73
2023/04/02 14:14:39;;;;;;;1.48;0.63;;;;;;;23.60;17.17;102635.09;6203279;28;20232;-74
2023/04/02 14:18:18;;;;;;;1.15;0.93;;;;;;;21.64;19.45;102643.38;6218502;28;20236;-74
2023/04/02 14:21:52;;;;;;;1.70;1.02;;;;;;;16.52;26.15;102652.94;6228698;28;20606;-73
2023/04/02 14:25:24;;;;;;;0.63;0.55;;;;;;;14.52;29.40;102659.25;6229278;28;20224;-74
2023/04/02 14:28:56;;;;;;;0.87;0.87;;;;;;;13.91;31.41;102662.50;6225099;28;20229;-72
2023/04/02 14:32:24;;;;;;;2.10;0.97;;;;;;;15.88;29.31;102657.03;6229882;28;20256;-72
2023/04/02 14:35:47;;;;;;;1.83;1.10;;;;;;;16.75;27.88;102663.84;6197507;28;20232;-72
2023/04/02 14:39:17;;;;;;;1.13;0.60;;;;;;;14.93;30.20;102665.81;6213146;28;20225;-73
2023/04/02 14:42:43;;;;;;;1.63;0.77;;;;;;;13.58;33.27;102686.88;6231857;28;20296;-73
2023/04/02 14:46:06;;;;;;;3.10;1.07;;;;;;;13.55;32.87;102693.34;6230091;28;20325;-73
2023/04/02 14:49:32;;;;;;;1.10;0.97;;;;;;;15.00;30.90;102688.16;6224627;28;20665;-74
2023/04/02 14:52:57;;;;;;;1.53;1.43;;;;;;;14.71;30.97;102690.19;6227317;28;20244;-74
2023/04/02 14:56:23;;;;;;;2.23;2.00;;;;;;;14.42;32.42;102689.56;6223166;28;20225;-74
2023/04/02 14:59:55;;;;;;;3.50;2.57;;;;;;;14.18;32.48;102690.88;6227183;28;20251;-73
2023/04/02 15:03:22;;;;;;;5.30;1.30;;;;;;;14.21;32.05;102697.72;6214005;28;20495;-70
2023/04/02 15:06:47;;;;;;;1.43;1.33;;;;;;;13.08;34.59;102705.63;6218400;28;20328;-74
2023/04/02 15:10:17;;;;;;;3.47;2.03;;;;;;;12.90;35.40;102701.97;6221396;28;20497;-68
2023/04/02 15:13:45;;;;;;;2.37;2.17;;;;;;;12.39;35.69;102713.59;6207156;28;20241;-68
2023/04/02 15:17:06;;;;;;;4.37;2.73;;;;;;;12.30;36.88;102714.38;6216417;28;20231;-69
2023/04/02 15:20:36;;;;;;;4.33;2.23;;;;;;;12.89;35.70;102709.06;6207477;28;20240;-68
2023/04/02 15:24:04;;;;;;;2.43;2.20;;;;;;;13.25;33.26;102712.06;6225264;28;20240;-69
2023/04/02 15:27:38;;;;;;;3.50;2.10;;;;;;;14.06;33.31;102704.47;6224717;28;20235;-69
2023/04/02 15:31:06;;;;;;;3.13;1.67;;;;;;;13.95;32.80;102710.84;6220073;28;20233;-69
2023/04/02 15:34:31;;;;;;;2.63;1.20;;;;;;;12.84;34.94;102723.75;6226761;28;20260;-69
2023/04/02 15:37:59;;;;;;;1.40;1.30;;;;;;;12.04;36.06;102736.97;6216558;28;20240;-70
2023/04/02 15:41:25;;;;;;;4.33;2.60;;;;;;;12.03;37.09;102741.44;6211125;28;20241;-71
2023/04/02 15:45:01;;;;;;;4.97;2.70;;;;;;;11.40;37.88;102742.38;6196954;28;20237;-68
2023/04/02 15:48:47;;;;;;;2.23;2.03;;;;;;;11.98;37.48;102743.63;6229922;28;20224;-70
2023/04/02 15:52:15;;;;;;;2.20;1.90;;;;;;;12.81;35.38;102746.03;6205010;28;20236;-68
2023/04/02 15:55:41;;;;;;;2.47;1.37;;;;;;;11.89;36.38;102766.44;6225011;28;20228;-69
2023/04/02 15:59:31;;;;;;;5.40;2.77;;;;;;;12.04;36.14;102758.16;6225665;28;20228;-68
2023/04/02 16:03:24;;;;;;;3.63;1.57;;;;;;;11.83;35.56;102753.72;6203631;28;20307;-68
2023/04/02 16:07:01;;;;;;;3.90;3.00;;;;;;;12.36;34.29;102758.88;6194841;28;20233;-69
2023/04/02 16:10:28;;;;;;;3.37;2.10;;;;;;;12.50;34.65;102760.31;6224125;28;21133;-69